Arminto, Wyoming
Current Conditions -  °F | °C
As of 7:53 PM on Friday 19 Dec 2014 (Local Time) from KCPR Reporting Station
Clear Clear  
Wind Chill: -8°   Ceiling: Unl
Heat Index: -1°   Visibility: 10mi
Dew Point: -6°   Wind: 20mph
Humidity: 69%   Direction: 220°SW
Pressure: 29.97"   Gusts: NA
Location:  43.18°N, 107.26°W
Report Text: KCPR 200253Z 22017KT 10SM CLR M01/M06 A2997 RMK AO2 SLP181 T10111061 53001
Loading
Personal Weather Stations






























Interactive Weather Map New forecast layout! Learn more

10-Day Weather Forecast

Advertisements
Track Severe Weather on mobile